Staffordville, New Jersey
Current Conditions -  °F | °C
As of 12:55 PM on Saturday 25 Oct 2014 (Local Time) from KMJX Reporting Station
Clear Clear  
Wind Chill: 66°   Ceiling: Unl
Heat Index: 66°   Visibility: 10mi
Dew Point: 43°   Wind: 6mph
Humidity: 43%   Direction: 280°W
Pressure: 29.82"   Gusts: NA
Location:  39.6605°N, 74.2864°W
Report Text: KMJX 251655Z AUTO 28005KT 10SM CLR 19/06 A2982 RMK AO1
Loading
Personal Weather Stations






























Interactive Weather Map New forecast layout! Learn more

10-Day Weather Forecast

Advertisements
Track Severe Weather on mobile